createdAt,value
2019-01-09T00:02:33.146Z,93.90
2019-01-09T00:12:36.722Z,93.40
2019-01-09T00:22:40.294Z,93.50
2019-01-09T00:32:43.866Z,93.20
2019-01-09T00:42:47.439Z,93.00
2019-01-09T00:53:04.912Z,93.00
2019-01-09T01:03:32.693Z,92.50
2019-01-09T01:14:27.225Z,92.40
2019-01-09T01:25:21.515Z,92.50
2019-01-09T01:36:10.966Z,91.90
2019-01-09T01:46:58.257Z,91.70
2019-01-09T01:57:32.366Z,91.70
2019-01-09T02:08:01.522Z,91.80
2019-01-09T02:18:13.871Z,91.50
2019-01-09T02:28:56.566Z,91.40
2019-01-09T02:39:00.169Z,91.30
2019-01-09T02:49:03.739Z,91.00
2019-01-09T02:59:07.406Z,91.20
2019-01-09T03:09:10.987Z,91.10
2019-01-09T03:19:14.626Z,90.50
2019-01-09T03:29:18.190Z,90.90
2019-01-09T03:39:21.789Z,91.00
2019-01-09T03:49:25.428Z,90.70
2019-01-09T03:59:29.026Z,90.30
2019-01-09T04:09:32.607Z,90.40
2019-01-09T04:19:36.183Z,89.40
2019-01-09T04:29:41.764Z,89.50
2019-01-09T04:39:45.070Z,88.50
2019-01-09T04:49:48.942Z,87.50
2019-01-09T04:59:52.763Z,87.60
2019-01-09T05:09:56.578Z,87.20
2019-01-09T05:20:00.192Z,87.00
2019-01-09T05:30:03.786Z,87.20
2019-01-09T05:40:07.366Z,86.90
2019-01-09T05:50:10.967Z,86.80
2019-01-09T06:00:14.558Z,85.80
2019-01-09T06:10:18.202Z,86.40
2019-01-09T06:20:21.786Z,86.30
2019-01-09T06:30:25.402Z,86.90
2019-01-09T06:40:28.978Z,86.40
2019-01-09T06:50:32.549Z,86.70
2019-01-09T07:00:36.131Z,87.40
2019-01-09T07:10:39.690Z,87.70
2019-01-09T07:20:43.253Z,87.00
2019-01-09T07:30:46.831Z,87.20
2019-01-09T07:40:50.418Z,86.00
2019-01-09T07:50:53.990Z,87.00
2019-01-09T08:00:57.573Z,86.90
2019-01-09T08:11:01.149Z,86.60
2019-01-09T08:21:05.412Z,86.20
2019-01-09T08:31:09.946Z,87.30
2019-01-09T08:41:13.518Z,87.20
2019-01-09T08:51:17.090Z,86.20
2019-01-09T09:01:20.659Z,86.90
2019-01-09T09:11:24.226Z,87.10
2019-01-09T09:21:27.790Z,87.40
2019-01-09T09:31:31.389Z,87.50
2019-01-09T09:41:34.966Z,87.30
2019-01-09T09:51:38.558Z,86.60
2019-01-09T10:01:42.162Z,86.40
2019-01-09T10:11:45.750Z,87.30
2019-01-09T10:21:49.550Z,85.20
2019-01-09T10:31:53.366Z,85.70
2019-01-09T10:41:57.718Z,86.40
2019-01-09T10:52:01.290Z,86.80
2019-01-09T11:02:04.870Z,86.50
2019-01-09T11:12:08.450Z,85.60
2019-01-09T11:22:12.010Z,85.40
2019-01-09T11:32:15.582Z,84.40
2019-01-09T11:42:19.152Z,84.40
2019-01-09T11:52:22.951Z,83.30
2019-01-09T12:02:26.539Z,83.60
2019-01-09T12:12:30.145Z,83.80
2019-01-09T12:22:33.707Z,83.00
2019-01-09T12:32:37.270Z,83.70
2019-01-09T12:42:40.849Z,83.00
2019-01-09T12:52:44.416Z,83.20
2019-01-09T13:02:47.998Z,83.00
2019-01-09T13:12:52.881Z,83.60
2019-01-09T13:22:56.614Z,83.20
2019-01-09T13:33:00.193Z,82.80
2019-01-09T13:43:03.758Z,82.40
2019-01-09T13:53:07.362Z,82.80
2019-01-09T14:03:10.930Z,82.20
2019-01-09T14:13:14.744Z,82.50
2019-01-09T14:23:18.569Z,82.30
2019-01-09T14:33:22.150Z,82.50
2019-01-09T14:43:25.759Z,82.00
2019-01-09T14:53:29.337Z,82.90
2019-01-09T15:03:33.148Z,82.30
2019-01-09T15:13:36.931Z,81.70
2019-01-09T15:23:41.314Z,81.40
2019-01-09T15:33:44.874Z,81.30
2019-01-09T15:43:48.470Z,81.30
2019-01-09T15:53:52.096Z,81.30
2019-01-09T16:03:55.666Z,81.10
2019-01-09T16:13:59.242Z,81.50
2019-01-09T16:24:02.807Z,81.90
2019-01-09T16:34:06.655Z,81.60
2019-01-09T16:44:10.239Z,81.20
2019-01-09T16:54:13.826Z,81.70
2019-01-09T17:04:17.714Z,81.20
2019-01-09T17:14:21.382Z,81.60
2019-01-09T17:24:25.279Z,81.60
2019-01-09T17:34:28.862Z,81.60
2019-01-09T17:44:32.458Z,81.60
2019-01-09T17:54:36.059Z,81.70
2019-01-09T18:04:40.835Z,81.30
2019-01-09T18:14:44.410Z,81.20
2019-01-09T18:24:48.002Z,80.90
2019-01-09T18:35:34.874Z,81.10
2019-01-09T18:46:28.035Z,81.00
2019-01-09T18:56:31.630Z,81.00
2019-01-09T19:06:35.651Z,81.00
2019-01-09T19:16:39.303Z,81.00
2019-01-09T19:26:47.023Z,81.40
2019-01-09T19:36:50.610Z,81.60
2019-01-09T19:46:54.551Z,81.60
2019-01-09T19:56:58.180Z,82.50
2019-01-09T20:07:02.300Z,81.70
2019-01-09T20:17:05.889Z,81.90
2019-01-09T20:27:09.594Z,81.70
2019-01-09T20:37:13.240Z,81.00
2019-01-09T20:47:16.890Z,81.50
2019-01-09T20:57:20.697Z,81.60
2019-01-09T21:07:24.318Z,81.60
2019-01-09T21:17:27.942Z,81.60
2019-01-09T21:27:31.554Z,81.90
2019-01-09T21:37:35.358Z,82.00
2019-01-09T21:47:39.761Z,82.30
2019-01-09T21:57:45.686Z,82.30
2019-01-09T22:07:49.254Z,82.60
2019-01-09T22:17:53.152Z,82.60
2019-01-09T22:27:56.722Z,83.10
2019-01-09T22:38:02.397Z,82.90
2019-01-09T22:48:06.219Z,83.20
2019-01-09T22:58:09.802Z,83.20
2019-01-09T23:08:13.369Z,83.20
2019-01-09T23:18:16.930Z,83.00
2019-01-09T23:28:20.501Z,83.40
2019-01-09T23:38:24.077Z,83.40
2019-01-09T23:48:27.642Z,83.30
2019-01-09T23:58:31.227Z,83.00
